< < Back
Terminal Aerodrome Forecast


Current Version              Previous Versions:   1  2  3  4  5  6  7  8  9  

Terminal Aerodrome Forecast

741
FTUS42 KJAX 011449 AAB
TAFJAX
TAF AMD
KJAX 011449Z 0115/0212 03008KT P6SM VCSH OVC004
      TEMPO 0115/0118 OVC006
     FM011800 09006KT P6SM OVC007
     FM020200 03003KT 3SM BR OVC004=



Latest METAR

856
SAUS80 KWBC 012300 RRK
MTRJAX
METAR KJAX 012256Z 07005KT 5SM BR OVC010 14/13 A3034 RMK AO2 SLP275
T01390128


USA.gov is the U.S. government's official web portal to all federal, state and local government web resources and services.